createdAt,value
2024-02-12T00:01:23.918Z,20.10
2024-02-12T00:03:25.725Z,20.05
2024-02-12T00:05:27.664Z,18.73
2024-02-12T00:07:29.285Z,20.67
2024-02-12T00:09:30.947Z,15.52
2024-02-12T00:11:32.581Z,17.98
2024-02-12T00:13:34.881Z,18.30
2024-02-12T00:15:36.552Z,17.40
2024-02-12T00:17:39.810Z,17.10
2024-02-12T00:19:41.440Z,14.50
2024-02-12T00:21:46.547Z,14.45
2024-02-12T00:23:48.312Z,13.05
2024-02-12T00:25:49.955Z,12.55
2024-02-12T00:27:52.140Z,12.05
2024-02-12T00:29:55.271Z,10.65
2024-02-12T00:32:00.003Z,11.43
2024-02-12T00:34:02.606Z,9.45
2024-02-12T00:36:05.102Z,9.65
2024-02-12T00:38:06.784Z,10.13
2024-02-12T00:40:09.848Z,10.82
2024-02-12T00:42:13.510Z,10.85
2024-02-12T00:44:16.081Z,11.02
2024-02-12T00:46:19.489Z,10.48
2024-02-12T00:48:21.155Z,10.40
2024-02-12T00:50:23.518Z,10.32
2024-02-12T00:52:25.142Z,11.10
2024-02-12T00:54:30.441Z,11.48
2024-02-12T00:56:32.088Z,11.10
2024-02-12T00:58:36.775Z,11.20
2024-02-12T01:00:39.046Z,9.82
2024-02-12T01:02:44.244Z,11.07
2024-02-12T01:04:45.904Z,10.82
2024-02-12T01:06:47.609Z,11.23
2024-02-12T01:08:50.703Z,11.75
2024-02-12T01:10:52.450Z,11.57
2024-02-12T01:12:54.698Z,11.68
2024-02-12T01:14:57.272Z,12.10
2024-02-12T01:16:58.962Z,12.43
2024-02-12T01:19:00.928Z,13.73
2024-02-12T01:21:05.152Z,13.45
2024-02-12T01:23:09.756Z,13.90
2024-02-12T01:25:13.164Z,13.70
2024-02-12T01:27:15.537Z,13.48
2024-02-12T01:29:17.115Z,12.93
2024-02-12T01:31:19.882Z,11.93
2024-02-12T01:33:21.934Z,13.20
2024-02-12T01:35:23.756Z,13.23
2024-02-12T01:37:26.499Z,12.45
2024-02-12T01:39:28.184Z,12.65
2024-02-12T01:41:29.846Z,13.00
2024-02-12T01:43:32.426Z,12.00
2024-02-12T01:45:35.644Z,12.10
2024-02-12T01:47:37.683Z,10.60
2024-02-12T01:49:39.920Z,9.20
2024-02-12T01:51:45.802Z,10.40
2024-02-12T01:53:50.268Z,9.98
2024-02-12T01:55:52.582Z,8.90
2024-02-12T01:57:54.531Z,8.70
2024-02-12T01:59:56.419Z,9.48
2024-02-12T02:01:58.037Z,9.35
2024-02-12T02:03:59.684Z,10.32
2024-02-12T02:06:01.529Z,10.77
2024-02-12T02:08:03.377Z,11.43
2024-02-12T02:10:10.014Z,11.82
2024-02-12T02:12:11.749Z,11.13
2024-02-12T02:14:15.058Z,12.18
2024-02-12T02:16:20.804Z,11.88
2024-02-12T02:18:22.469Z,11.60
2024-02-12T02:20:27.999Z,11.93
2024-02-12T02:22:31.035Z,12.00
2024-02-12T02:24:32.603Z,11.98
2024-02-12T02:26:35.404Z,12.45
2024-02-12T02:28:37.048Z,12.98
2024-02-12T02:30:40.266Z,12.25
2024-02-12T02:32:42.292Z,12.63
2024-02-12T02:34:45.107Z,12.13
2024-02-12T02:36:48.086Z,12.23
2024-02-12T02:38:49.792Z,12.30
2024-02-12T02:40:51.551Z,12.40
2024-02-12T02:42:53.981Z,13.13
2024-02-12T02:44:55.611Z,12.15
2024-02-12T02:46:57.799Z,12.68
2024-02-12T02:48:59.945Z,11.98
2024-02-12T02:51:01.978Z,12.07
2024-02-12T02:53:04.097Z,11.55
2024-02-12T02:55:07.555Z,12.48
2024-02-12T02:57:09.176Z,13.07
2024-02-12T02:59:10.856Z,13.02
2024-02-12T03:01:13.723Z,12.45
2024-02-12T03:03:15.484Z,13.27
2024-02-12T03:05:17.472Z,13.25
2024-02-12T03:07:19.104Z,13.30
2024-02-12T03:09:22.412Z,13.13
2024-02-12T03:11:28.231Z,13.05
2024-02-12T03:13:29.827Z,12.93
2024-02-12T03:15:32.566Z,12.65
2024-02-12T03:17:34.335Z,13.13
2024-02-12T03:19:36.937Z,13.70
2024-02-12T03:21:38.622Z,15.95
2024-02-12T03:23:40.227Z,16.60
2024-02-12T03:25:42.654Z,17.70
2024-02-12T03:27:45.073Z,17.63
2024-02-12T03:31:50.715Z,15.15
2024-02-12T03:33:54.438Z,15.38
2024-02-12T03:35:56.296Z,15.65
2024-02-12T03:37:59.314Z,15.95
2024-02-12T03:40:00.902Z,18.15
2024-02-12T03:42:03.034Z,18.25
2024-02-12T03:44:04.821Z,21.48
2024-02-12T03:46:06.849Z,19.90
2024-02-12T03:48:28.747Z,16.55
2024-02-12T03:50:48.846Z,14.10
2024-02-12T03:53:09.163Z,13.70
2024-02-12T03:55:29.195Z,12.48
2024-02-12T03:57:50.322Z,11.20
2024-02-12T03:59:52.346Z,10.40
2024-02-12T04:01:55.699Z,11.00
2024-02-12T04:03:57.319Z,9.57
2024-02-12T04:05:59.289Z,9.90
2024-02-12T04:08:01.092Z,10.05
2024-02-12T04:10:02.999Z,10.98
2024-02-12T04:12:08.795Z,10.13
2024-02-12T04:14:11.105Z,9.93
2024-02-12T04:16:13.775Z,9.95
2024-02-12T04:18:15.515Z,10.38
2024-02-12T04:20:19.203Z,10.13
2024-02-12T04:22:22.144Z,9.75
2024-02-12T04:24:27.790Z,9.55
2024-02-12T04:26:29.691Z,10.10
2024-02-12T04:28:33.264Z,10.25
2024-02-12T04:30:34.785Z,9.70
2024-02-12T04:32:36.335Z,9.80
2024-02-12T04:34:38.264Z,9.15
2024-02-12T04:36:42.200Z,9.95
2024-02-12T04:38:43.817Z,8.85
2024-02-12T04:40:45.386Z,9.70
2024-02-12T04:42:49.312Z,9.50
2024-02-12T04:44:50.898Z,9.52
2024-02-12T04:46:52.844Z,9.63
2024-02-12T04:48:54.521Z,10.32
2024-02-12T04:50:56.636Z,9.52
2024-02-12T04:52:58.178Z,9.27
2024-02-12T04:55:00.315Z,12.32
2024-02-12T04:57:02.698Z,16.55
2024-02-12T04:59:13.193Z,19.33
2024-02-12T05:01:14.821Z,18.30
2024-02-12T05:03:17.340Z,19.63
2024-02-12T05:05:19.413Z,14.05
2024-02-12T05:07:21.205Z,11.00
2024-02-12T05:09:22.744Z,9.48
2024-02-12T05:11:27.122Z,10.32
2024-02-12T05:13:28.769Z,10.98
2024-02-12T05:15:31.783Z,11.02
2024-02-12T05:17:53.597Z,9.93
2024-02-12T05:20:14.247Z,9.25
2024-02-12T05:22:34.559Z,8.60
2024-02-12T05:24:36.382Z,9.52
2024-02-12T05:26:40.245Z,10.02
2024-02-12T05:28:42.073Z,9.15
2024-02-12T05:30:43.767Z,9.50
2024-02-12T05:32:45.382Z,8.93
2024-02-12T05:34:50.352Z,9.02
2024-02-12T05:36:54.790Z,8.00
2024-02-12T05:38:56.371Z,8.63
2024-02-12T05:40:58.000Z,8.65
2024-02-12T05:42:59.596Z,8.30
2024-02-12T05:45:01.154Z,7.63
2024-02-12T05:47:03.677Z,7.78
2024-02-12T05:49:07.553Z,8.00
2024-02-12T05:51:11.230Z,7.38
2024-02-12T05:53:12.976Z,6.80
2024-02-12T05:55:14.583Z,6.45
2024-02-12T05:57:16.118Z,6.90
2024-02-12T05:59:17.893Z,7.07
2024-02-12T06:01:19.506Z,6.40
2024-02-12T06:03:21.171Z,6.13
2024-02-12T06:05:22.889Z,5.50
2024-02-12T06:07:24.597Z,6.13
2024-02-12T06:09:27.253Z,6.28
2024-02-12T06:11:28.855Z,5.97
2024-02-12T06:13:30.504Z,7.22
2024-02-12T06:15:32.818Z,8.63
2024-02-12T06:17:34.679Z,7.88
2024-02-12T06:19:36.379Z,5.47
2024-02-12T06:21:37.957Z,5.18
2024-02-12T06:23:39.805Z,4.82
2024-02-12T06:25:42.052Z,5.15
2024-02-12T06:27:45.465Z,5.43
2024-02-12T06:29:47.091Z,6.13
2024-02-12T06:31:48.653Z,10.90
2024-02-12T06:33:50.712Z,10.10
2024-02-12T06:35:53.285Z,7.93
2024-02-12T06:37:54.903Z,5.15
2024-02-12T06:39:56.472Z,6.70
2024-02-12T06:41:57.994Z,5.57
2024-02-12T06:43:59.838Z,6.40
2024-02-12T06:46:01.902Z,6.03
2024-02-12T06:48:05.174Z,5.47
2024-02-12T06:50:07.439Z,6.85
2024-02-12T06:52:10.097Z,5.80
2024-02-12T06:54:11.722Z,10.00
2024-02-12T06:56:13.383Z,7.20
2024-02-12T06:58:15.130Z,6.88
2024-02-12T07:00:17.243Z,10.88
2024-02-12T07:02:20.388Z,13.52
2024-02-12T07:04:21.945Z,24.90
2024-02-12T07:06:23.650Z,43.00
2024-02-12T07:08:25.785Z,51.05
2024-02-12T07:10:27.494Z,35.10
2024-02-12T07:12:29.011Z,15.25
2024-02-12T07:14:31.734Z,8.43
2024-02-12T07:16:33.372Z,7.93
2024-02-12T07:18:35.620Z,7.15
2024-02-12T07:20:37.670Z,7.13
2024-02-12T07:22:39.670Z,6.90
2024-02-12T07:24:41.826Z,6.20
2024-02-12T07:26:44.216Z,6.65
2024-02-12T07:28:50.490Z,7.68
2024-02-12T07:30:52.024Z,6.07
2024-02-12T07:32:53.694Z,8.77
2024-02-12T07:34:55.735Z,9.98
2024-02-12T07:36:57.346Z,8.88
2024-02-12T07:38:58.881Z,7.10
2024-02-12T07:41:01.121Z,6.78
2024-02-12T07:43:02.755Z,10.90
2024-02-12T07:45:06.102Z,11.88
2024-02-12T07:47:07.856Z,15.52
2024-02-12T07:49:11.692Z,11.27
2024-02-12T07:51:13.300Z,10.15
2024-02-12T07:53:14.868Z,15.68
2024-02-12T07:55:16.658Z,15.15
2024-02-12T07:57:18.256Z,34.35
2024-02-12T07:59:21.494Z,30.17
2024-02-12T08:01:23.168Z,21.13
2024-02-12T08:03:25.036Z,18.98
2024-02-12T08:05:26.689Z,13.00
2024-02-12T08:07:36.464Z,27.70
2024-02-12T08:09:47.964Z,24.50
2024-02-12T08:11:51.208Z,28.45
2024-02-12T08:13:52.721Z,15.30
2024-02-12T08:15:54.241Z,10.98
2024-02-12T08:17:56.054Z,14.25
2024-02-12T08:19:58.088Z,11.43
2024-02-12T08:21:59.756Z,7.38
2024-02-12T08:24:02.383Z,6.40
2024-02-12T08:26:06.336Z,10.13
2024-02-12T08:28:11.014Z,24.10
2024-02-12T08:30:12.877Z,11.45
2024-02-12T08:32:14.743Z,9.02
2024-02-12T08:34:17.256Z,7.88
2024-02-12T08:36:18.925Z,8.57
2024-02-12T08:38:20.725Z,5.00
2024-02-12T08:40:23.626Z,6.07
2024-02-12T08:42:25.241Z,6.55
2024-02-12T08:44:27.573Z,6.30
2024-02-12T08:46:31.847Z,6.60
2024-02-12T08:48:33.449Z,5.20
2024-02-12T08:50:36.043Z,6.03
2024-02-12T08:52:38.368Z,6.35
2024-02-12T08:54:39.963Z,4.97
2024-02-12T08:56:43.207Z,4.30
2024-02-12T08:58:45.332Z,5.80
2024-02-12T09:00:46.986Z,6.32
2024-02-12T09:02:49.037Z,7.50
2024-02-12T09:04:52.294Z,6.43
2024-02-12T09:06:53.892Z,6.78
2024-02-12T09:08:55.461Z,7.63
2024-02-12T09:10:57.033Z,9.73
2024-02-12T09:13:00.622Z,7.20
2024-02-12T09:15:02.381Z,8.07
2024-02-12T09:17:04.197Z,8.52
2024-02-12T09:19:06.756Z,7.57
2024-02-12T09:21:08.404Z,7.43
2024-02-12T09:23:10.721Z,8.57
2024-02-12T09:25:13.820Z,6.07
2024-02-12T09:27:15.663Z,9.70
2024-02-12T09:29:17.614Z,6.68
2024-02-12T09:31:19.186Z,9.55
2024-02-12T09:33:20.837Z,5.65
2024-02-12T09:35:22.533Z,4.50
2024-02-12T09:37:30.867Z,3.30
2024-02-12T09:39:32.545Z,2.90
2024-02-12T09:41:35.289Z,2.30
2024-02-12T09:43:38.088Z,2.20
2024-02-12T09:45:44.262Z,2.75
2024-02-12T09:47:46.182Z,3.60
2024-02-12T09:49:48.363Z,4.18
2024-02-12T09:51:53.077Z,4.00
2024-02-12T09:53:56.998Z,3.53
2024-02-12T09:56:01.538Z,2.42
2024-02-12T09:58:06.039Z,2.90
2024-02-12T10:00:08.653Z,2.50
2024-02-12T10:02:10.667Z,13.43
2024-02-12T10:04:12.369Z,9.60
2024-02-12T10:06:14.390Z,8.40
2024-02-12T10:08:20.203Z,5.03
2024-02-12T10:10:21.802Z,6.53
2024-02-12T10:12:23.361Z,7.20
2024-02-12T10:14:32.230Z,5.20
2024-02-12T10:16:33.957Z,5.72
2024-02-12T10:18:35.533Z,4.00
2024-02-12T10:20:40.913Z,4.00
2024-02-12T10:22:42.946Z,3.85
2024-02-12T10:24:48.813Z,4.50
2024-02-12T10:26:51.470Z,2.20
2024-02-12T10:28:59.423Z,2.17
2024-02-12T10:31:01.443Z,2.90
2024-02-12T10:33:07.841Z,2.72
2024-02-12T10:35:14.520Z,2.55
2024-02-12T10:37:19.663Z,2.15
2024-02-12T10:39:22.739Z,3.13
2024-02-12T10:41:35.065Z,2.55
2024-02-12T10:43:41.526Z,2.70
2024-02-12T10:45:48.948Z,3.15
2024-02-12T10:47:50.953Z,4.10
2024-02-12T10:49:52.981Z,2.38
2024-02-12T10:51:56.093Z,3.28
2024-02-12T10:53:57.916Z,2.05
2024-02-12T10:55:59.900Z,2.15
2024-02-12T10:58:01.905Z,2.83
2024-02-12T11:00:07.415Z,2.88
2024-02-12T11:02:14.757Z,2.33
2024-02-12T11:04:17.368Z,2.33
2024-02-12T11:06:19.867Z,3.03
2024-02-12T11:08:24.730Z,2.53
2024-02-12T11:10:27.411Z,2.58
2024-02-12T11:12:29.133Z,2.67
2024-02-12T11:14:34.173Z,2.30
2024-02-12T11:16:39.569Z,2.55
2024-02-12T11:18:41.214Z,2.90
2024-02-12T11:20:53.064Z,3.15
2024-02-12T11:23:05.805Z,2.20
2024-02-12T11:25:13.850Z,2.60
2024-02-12T11:27:20.218Z,2.38
2024-02-12T11:29:22.069Z,2.97
2024-02-12T11:31:30.097Z,2.85
2024-02-12T11:33:32.739Z,2.80
2024-02-12T11:35:36.149Z,2.15
2024-02-12T11:37:37.933Z,2.88
2024-02-12T11:39:40.395Z,3.53
2024-02-12T11:41:42.158Z,3.53
2024-02-12T11:43:47.932Z,2.50
2024-02-12T11:46:00.462Z,2.88
2024-02-12T11:48:12.121Z,2.47
2024-02-12T11:50:28.323Z,2.78
2024-02-12T11:52:33.863Z,2.53
2024-02-12T11:54:35.923Z,3.42
2024-02-12T11:56:37.971Z,3.72
2024-02-12T11:58:39.590Z,2.95
2024-02-12T12:00:41.201Z,3.30
2024-02-12T12:02:44.548Z,3.05
2024-02-12T12:04:46.213Z,2.90
2024-02-12T12:06:47.945Z,2.72
2024-02-12T12:08:50.474Z,3.28
2024-02-12T12:10:52.076Z,2.40
2024-02-12T12:12:59.963Z,2.58
2024-02-12T12:15:06.238Z,2.38
2024-02-12T12:17:29.286Z,2.60
2024-02-12T12:19:30.665Z,2.45
2024-02-12T12:21:36.033Z,2.83
2024-02-12T12:23:38.002Z,2.85
2024-02-12T12:25:40.132Z,2.70
2024-02-12T12:27:42.288Z,2.83
2024-02-12T12:29:44.886Z,2.25
2024-02-12T12:31:47.633Z,2.95
2024-02-12T12:33:50.631Z,3.38
2024-02-12T12:35:52.450Z,2.50
2024-02-12T12:37:54.192Z,4.22
2024-02-12T12:39:56.100Z,2.38
2024-02-12T12:41:57.670Z,4.32
2024-02-12T12:44:00.579Z,2.50
2024-02-12T12:46:06.204Z,2.50
2024-02-12T12:48:10.928Z,2.28
2024-02-12T12:50:15.579Z,3.95
2024-02-12T12:52:17.574Z,2.83
2024-02-12T12:54:20.743Z,2.63
2024-02-12T12:56:22.951Z,2.17
2024-02-12T12:58:24.931Z,3.58
2024-02-12T13:00:32.641Z,3.28
2024-02-12T13:02:35.141Z,2.85
2024-02-12T13:04:36.747Z,3.25
2024-02-12T13:06:44.027Z,2.30
2024-02-12T13:08:46.603Z,23.58
2024-02-12T13:10:48.709Z,37.67
2024-02-12T13:12:50.887Z,26.15
2024-02-12T13:14:53.432Z,23.95
2024-02-12T13:16:55.065Z,10.25
2024-02-12T13:18:57.758Z,19.42
2024-02-12T13:20:59.943Z,39.35
2024-02-12T13:23:02.690Z,6.28
2024-02-12T13:25:07.843Z,9.65
2024-02-12T13:27:16.193Z,11.32
2024-02-12T13:29:24.625Z,6.00
2024-02-12T13:31:29.719Z,6.32
2024-02-12T13:33:32.054Z,8.48
2024-02-12T13:35:34.150Z,5.57
2024-02-12T13:37:35.796Z,5.57
2024-02-12T13:39:37.941Z,3.78
2024-02-12T13:41:41.563Z,6.13
2024-02-12T13:43:43.196Z,15.38
2024-02-12T13:45:45.241Z,5.95
2024-02-12T13:47:47.143Z,10.73
2024-02-12T13:49:50.717Z,10.93
2024-02-12T13:51:52.344Z,25.63
2024-02-12T13:53:53.997Z,25.17
2024-02-12T13:55:56.377Z,16.23
2024-02-12T13:57:58.346Z,18.85
2024-02-12T14:02:10.716Z,9.68
2024-02-12T14:04:13.445Z,15.73
2024-02-12T14:06:17.530Z,9.18
2024-02-12T14:08:19.489Z,11.10
2024-02-12T14:10:23.752Z,15.60
2024-02-12T14:12:26.255Z,10.07
2024-02-12T14:14:27.997Z,28.52
2024-02-12T14:16:29.560Z,15.65
2024-02-12T14:18:31.500Z,12.20
2024-02-12T14:20:33.198Z,13.95
2024-02-12T14:22:37.279Z,20.83
2024-02-12T14:24:40.400Z,15.57
2024-02-12T14:26:58.754Z,17.67
2024-02-12T14:29:03.012Z,12.23
2024-02-12T14:31:04.687Z,11.02
2024-02-12T14:33:07.583Z,11.38
2024-02-12T14:35:10.175Z,12.50
2024-02-12T14:37:13.386Z,9.15
2024-02-12T14:39:15.629Z,11.18
2024-02-12T14:41:17.554Z,8.40
2024-02-12T14:43:19.750Z,8.80
2024-02-12T14:45:22.879Z,12.65
2024-02-12T14:47:24.779Z,10.02
2024-02-12T14:49:35.058Z,9.85
2024-02-12T14:51:37.569Z,35.70
2024-02-12T14:53:39.434Z,13.27
2024-02-12T14:55:42.288Z,13.52
2024-02-12T14:57:43.899Z,14.10
2024-02-12T14:59:45.618Z,13.98
2024-02-12T15:01:48.119Z,9.85
2024-02-12T15:03:49.833Z,8.07
2024-02-12T15:05:52.091Z,7.30
2024-02-12T15:07:54.009Z,10.13
2024-02-12T15:09:55.574Z,9.80
2024-02-12T15:11:57.927Z,16.90
2024-02-12T15:13:59.618Z,25.13
2024-02-12T15:16:01.280Z,12.27
2024-02-12T15:18:03.524Z,15.82
2024-02-12T15:20:08.502Z,14.20
2024-02-12T15:22:10.417Z,21.58
2024-02-12T15:24:13.648Z,53.38
2024-02-12T15:26:15.725Z,72.53
2024-02-12T15:28:18.046Z,42.22
2024-02-12T15:30:21.413Z,43.20
2024-02-12T15:32:24.346Z,24.27
2024-02-12T15:34:26.099Z,135.07
2024-02-12T15:36:28.453Z,68.78
2024-02-12T15:38:34.053Z,55.33
2024-02-12T15:40:36.270Z,50.22
2024-02-12T15:42:38.456Z,43.15
2024-02-12T15:44:40.076Z,42.47
2024-02-12T15:46:44.739Z,33.33
2024-02-12T15:48:46.671Z,25.05
2024-02-12T15:50:48.645Z,36.08
2024-02-12T15:52:52.759Z,33.58
2024-02-12T15:54:54.967Z,27.65
2024-02-12T15:57:00.785Z,19.85
2024-02-12T15:59:02.499Z,23.80
2024-02-12T16:01:04.392Z,15.43
2024-02-12T16:03:06.013Z,19.75
2024-02-12T16:05:46.283Z,13.40
2024-02-12T16:07:47.869Z,10.32
2024-02-12T16:09:49.558Z,14.15
2024-02-12T16:11:51.326Z,12.93
2024-02-12T16:13:54.626Z,14.80
2024-02-12T16:15:58.182Z,13.02
2024-02-12T16:17:59.949Z,14.57
2024-02-12T16:20:01.674Z,13.65
2024-02-12T16:22:04.007Z,21.55
2024-02-12T16:24:05.862Z,18.30
2024-02-12T16:26:11.438Z,13.65
2024-02-12T16:28:13.262Z,21.50
2024-02-12T16:30:15.010Z,24.48
2024-02-12T16:32:17.217Z,25.00
2024-02-12T16:34:20.155Z,14.70
2024-02-12T16:36:21.719Z,12.82
2024-02-12T16:38:23.452Z,13.82
2024-02-12T16:40:25.653Z,14.88
2024-02-12T16:42:27.479Z,17.85
2024-02-12T16:44:29.382Z,27.27
2024-02-12T16:46:31.524Z,45.05
2024-02-12T16:48:37.530Z,20.63
2024-02-12T16:50:39.291Z,18.42
2024-02-12T16:52:42.431Z,16.45
2024-02-12T16:54:44.057Z,15.25
2024-02-12T16:56:45.598Z,20.33
2024-02-12T16:58:47.734Z,40.25
2024-02-12T17:00:51.261Z,52.03
2024-02-12T17:02:56.374Z,56.03
2024-02-12T17:04:58.793Z,53.60
2024-02-12T17:07:00.432Z,55.42
2024-02-12T17:09:02.127Z,56.17
2024-02-12T17:11:03.766Z,48.17
2024-02-12T17:13:06.640Z,33.63
2024-02-12T17:15:15.366Z,29.33
2024-02-12T17:17:17.342Z,25.60
2024-02-12T17:19:19.676Z,28.88
2024-02-12T17:21:21.978Z,41.65
2024-02-12T17:23:23.593Z,52.85
2024-02-12T17:25:25.235Z,43.75
2024-02-12T17:27:26.791Z,48.60
2024-02-12T17:29:28.551Z,52.10
2024-02-12T17:31:30.204Z,40.58
2024-02-12T17:33:32.774Z,52.08
2024-02-12T17:35:34.457Z,52.92
2024-02-12T17:37:36.020Z,53.42
2024-02-12T17:39:37.555Z,47.55
2024-02-12T17:41:39.250Z,48.55
2024-02-12T17:43:40.815Z,34.15
2024-02-12T17:45:42.534Z,39.22
2024-02-12T17:47:46.396Z,48.92
2024-02-12T17:49:51.711Z,46.50
2024-02-12T17:51:55.393Z,59.63
2024-02-12T17:53:57.252Z,38.90
2024-02-12T17:55:58.788Z,38.90
2024-02-12T17:58:00.359Z,38.90
2024-02-12T18:00:01.994Z,33.30
2024-02-12T18:02:06.553Z,32.40
2024-02-12T18:04:08.071Z,34.88
2024-02-12T18:06:09.880Z,36.42
2024-02-12T18:08:11.662Z,32.67
2024-02-12T18:10:15.102Z,28.65
2024-02-12T18:12:22.225Z,30.63
2024-02-12T18:14:24.948Z,26.08
2024-02-12T18:16:26.479Z,33.63
2024-02-12T18:18:28.500Z,30.52
2024-02-12T18:20:30.453Z,30.58
2024-02-12T18:22:32.257Z,29.23
2024-02-12T18:24:33.828Z,23.33
2024-02-12T18:26:35.745Z,24.85
2024-02-12T18:28:37.327Z,20.90
2024-02-12T18:30:39.430Z,19.88
2024-02-12T18:32:41.415Z,18.92
2024-02-12T18:34:44.540Z,16.42
2024-02-12T18:36:48.192Z,24.33
2024-02-12T18:38:49.959Z,31.52
2024-02-12T18:40:53.311Z,28.63
2024-02-12T18:42:54.998Z,28.20
2024-02-12T18:44:57.817Z,25.35
2024-02-12T18:47:00.129Z,29.15
2024-02-12T18:49:01.756Z,23.23
2024-02-12T18:51:04.817Z,32.00
2024-02-12T18:53:06.667Z,23.92
2024-02-12T18:55:12.783Z,32.10
2024-02-12T18:57:17.458Z,32.22
2024-02-12T18:59:19.906Z,28.85
2024-02-12T19:01:21.492Z,29.20
2024-02-12T19:03:23.605Z,26.77
2024-02-12T19:05:26.716Z,23.27
2024-02-12T19:07:28.482Z,22.65
2024-02-12T19:09:30.669Z,35.45
2024-02-12T19:11:33.984Z,17.70
2024-02-12T19:13:35.799Z,18.85
2024-02-12T19:15:38.049Z,19.05
2024-02-12T19:17:39.876Z,17.48
2024-02-12T19:19:41.566Z,21.40
2024-02-12T19:21:43.222Z,9.18
2024-02-12T19:23:44.926Z,12.07
2024-02-12T19:25:46.698Z,9.10
2024-02-12T19:27:48.300Z,13.73
2024-02-12T19:29:50.874Z,12.18
2024-02-12T19:31:52.957Z,5.90
2024-02-12T19:33:55.184Z,6.28
2024-02-12T19:35:57.624Z,5.60
2024-02-12T19:37:59.727Z,7.22
2024-02-12T19:40:03.390Z,6.40
2024-02-12T19:42:05.732Z,8.30
2024-02-12T19:44:07.629Z,12.77
2024-02-12T19:46:09.634Z,16.80
2024-02-12T19:48:11.917Z,28.85
2024-02-12T19:50:14.485Z,22.05
2024-02-12T19:52:16.242Z,19.85
2024-02-12T19:54:17.731Z,12.80
2024-02-12T19:56:19.978Z,10.35
2024-02-12T19:58:21.885Z,13.38
2024-02-12T20:00:25.315Z,17.60
2024-02-12T20:02:27.114Z,17.38
2024-02-12T20:04:29.544Z,18.38
2024-02-12T20:06:31.206Z,15.50
2024-02-12T20:08:32.921Z,7.35
2024-02-12T20:10:34.808Z,7.20
2024-02-12T20:12:37.671Z,8.15
2024-02-12T20:14:40.017Z,8.82
2024-02-12T20:16:42.397Z,9.70
2024-02-12T20:18:45.032Z,10.38
2024-02-12T20:20:46.804Z,12.45
2024-02-12T20:22:48.500Z,20.67
2024-02-12T20:24:52.155Z,32.40
2024-02-12T20:26:53.751Z,54.38
2024-02-12T20:28:55.349Z,48.45
2024-02-12T20:30:56.894Z,37.10
2024-02-12T20:32:58.615Z,22.42
2024-02-12T20:35:00.770Z,17.85
2024-02-12T20:37:03.227Z,20.13
2024-02-12T20:39:10.605Z,19.05
2024-02-12T20:41:12.364Z,16.05
2024-02-12T20:43:13.918Z,18.13
2024-02-12T20:45:15.771Z,19.98
2024-02-12T20:47:20.938Z,13.98
2024-02-12T20:49:22.812Z,16.27
2024-02-12T20:51:24.484Z,14.40
2024-02-12T20:53:26.210Z,13.55
2024-02-12T20:55:27.782Z,14.35
2024-02-12T20:57:29.607Z,16.70
2024-02-12T20:59:31.332Z,17.38
2024-02-12T21:01:33.067Z,14.63
2024-02-12T21:03:36.667Z,15.13
2024-02-12T21:05:38.260Z,14.15
2024-02-12T21:07:40.160Z,15.75
2024-02-12T21:09:46.314Z,16.45
2024-02-12T21:11:49.109Z,16.48
2024-02-12T21:13:50.808Z,22.13
2024-02-12T21:15:52.424Z,18.83
2024-02-12T21:17:54.446Z,17.27
2024-02-12T21:19:56.095Z,16.85
2024-02-12T21:21:58.629Z,14.23
2024-02-12T21:24:00.155Z,14.60
2024-02-12T21:26:02.016Z,16.40
2024-02-12T21:28:03.979Z,14.70
2024-02-12T21:30:06.200Z,21.33
2024-02-12T21:32:12.330Z,17.27
2024-02-12T21:34:15.976Z,17.67
2024-02-12T21:36:20.828Z,17.27
2024-02-12T21:38:29.365Z,16.23
2024-02-12T21:40:31.090Z,18.15
2024-02-12T21:42:33.832Z,17.85
2024-02-12T21:44:37.049Z,17.00
2024-02-12T21:46:40.785Z,16.50
2024-02-12T21:48:42.443Z,15.88
2024-02-12T21:50:44.197Z,15.23
2024-02-12T21:52:46.092Z,15.10
2024-02-12T21:54:50.855Z,15.65
2024-02-12T21:56:52.655Z,14.57
2024-02-12T21:58:54.209Z,14.40
2024-02-12T22:00:55.798Z,14.70
2024-02-12T22:02:57.403Z,14.57
2024-02-12T22:04:58.922Z,15.52
2024-02-12T22:07:00.690Z,16.48
2024-02-12T22:09:02.286Z,14.88
2024-02-12T22:11:04.320Z,16.88
2024-02-12T22:13:09.969Z,17.52
2024-02-12T22:15:11.831Z,18.60
2024-02-12T22:17:13.859Z,18.90
2024-02-12T22:19:15.787Z,19.75
2024-02-12T22:21:17.393Z,17.40
2024-02-12T22:23:19.112Z,16.92
2024-02-12T22:25:20.675Z,17.98
2024-02-12T22:27:22.276Z,18.38
2024-02-12T22:29:26.623Z,22.10
2024-02-12T22:31:28.224Z,25.95
2024-02-12T22:33:29.892Z,22.65
2024-02-12T22:35:31.803Z,20.27
2024-02-12T22:37:33.405Z,17.63
2024-02-12T22:39:34.985Z,16.42
2024-02-12T22:41:42.605Z,16.42
2024-02-12T22:43:44.372Z,16.15
2024-02-12T22:45:48.157Z,15.57
2024-02-12T22:47:49.829Z,14.77
2024-02-12T22:49:51.534Z,11.10
2024-02-12T22:51:54.393Z,8.77
2024-02-12T22:53:56.068Z,8.52
2024-02-12T22:55:57.658Z,9.98
2024-02-12T22:57:59.559Z,17.35
2024-02-12T23:00:01.079Z,17.52
2024-02-12T23:02:03.006Z,43.55
2024-02-12T23:04:04.970Z,36.90
2024-02-12T23:06:08.157Z,55.47
2024-02-12T23:08:12.013Z,56.25
2024-02-12T23:10:13.734Z,37.85
2024-02-12T23:12:17.195Z,29.50
2024-02-12T23:14:18.968Z,31.95
2024-02-12T23:16:20.539Z,44.00
2024-02-12T23:18:23.086Z,38.72
2024-02-12T23:20:25.306Z,31.70
2024-02-12T23:22:26.981Z,20.50
2024-02-12T23:24:28.592Z,17.92
2024-02-12T23:26:30.344Z,19.95
2024-02-12T23:28:37.088Z,21.15
2024-02-12T23:30:39.601Z,21.95
2024-02-12T23:32:43.878Z,21.40
2024-02-12T23:34:45.521Z,21.13
2024-02-12T23:36:47.104Z,15.10
2024-02-12T23:38:48.791Z,13.45
2024-02-12T23:40:50.402Z,13.10
2024-02-12T23:42:53.238Z,12.60
2024-02-12T23:44:54.878Z,11.38
2024-02-12T23:46:56.446Z,9.75
2024-02-12T23:48:58.069Z,10.40
2024-02-12T23:51:00.175Z,9.60
2024-02-12T23:53:01.982Z,9.75
2024-02-12T23:55:05.547Z,8.15
2024-02-12T23:57:07.417Z,8.40
2024-02-12T23:59:08.977Z,8.18
